Time;durP1;ratioP1;P1;durP2;ratioP2;P2;SDS_P1;SDS_P2;PMS_P1;PMS_P2;Temp;Humidity;BMP_temperature;BMP_pressure;BME280_temperature;BME280_humidity;BME280_pressure;Samples;Min_cycle;Max_cycle;Signal;HPM_P1;HPM_P2
2021/06/27 00:00:36;;;;;;;4.90;4.50;;;18.30;99.90;;;;;;5053742;28;20238;-73
2021/06/27 00:03:02;;;;;;;4.83;4.33;;;18.30;99.90;;;;;;5071662;28;20705;-73
2021/06/27 00:05:29;;;;;;;4.33;4.00;;;18.30;99.90;;;;;;5071064;28;20550;-73
2021/06/27 00:07:55;;;;;;;4.50;4.10;;;18.30;99.90;;;;;;5071785;28;20410;-73
2021/06/27 00:10:24;;;;;;;5.57;4.20;;;18.20;99.90;;;;;;5069656;28;20443;-73
2021/06/27 00:12:49;;;;;;;4.93;4.50;;;18.20;99.90;;;;;;5058745;28;20434;-73
2021/06/27 00:15:26;;;;;;;4.10;3.80;;;18.20;99.90;;;;;;5071565;28;20402;-73
2021/06/27 00:17:51;;;;;;;4.30;4.00;;;18.10;99.90;;;;;;5054986;28;20174;-72
2021/06/27 00:20:23;;;;;;;4.93;4.53;;;18.10;99.90;;;;;;5051596;28;20408;-72
2021/06/27 00:22:48;;;;;;;5.70;5.30;;;18.00;99.90;;;;;;5051443;28;20201;-73
2021/06/27 00:25:16;;;;;;;5.30;4.33;;;18.00;99.90;;;;;;5051365;28;20824;-73
2021/06/27 00:27:46;;;;;;;7.20;4.63;;;18.00;99.90;;;;;;5051379;28;20172;-74
2021/06/27 00:30:12;;;;;;;3.73;3.43;;;18.00;99.90;;;;;;5068552;28;20418;-73
2021/06/27 00:32:38;;;;;;;4.87;4.40;;;18.00;99.90;;;;;;5071258;28;20434;-73
2021/06/27 00:35:06;;;;;;;4.53;3.83;;;18.00;99.90;;;;;;5071547;28;20485;-72
2021/06/27 00:37:32;;;;;;;6.30;4.87;;;18.00;99.90;;;;;;5071415;28;20411;-73
2021/06/27 00:39:58;;;;;;;3.80;3.50;;;17.90;99.90;;;;;;5071220;28;20406;-72
2021/06/27 00:42:24;;;;;;;4.30;3.53;;;17.90;99.90;;;;;;5071049;28;20184;-72
2021/06/27 00:44:49;;;;;;;4.13;3.77;;;17.80;99.90;;;;;;5071347;28;20410;-72
2021/06/27 00:47:32;;;;;;;4.70;4.27;;;17.80;99.90;;;;;;5071228;28;20580;-72
2021/06/27 00:49:57;;;;;;;4.90;4.37;;;17.80;99.90;;;;;;5071305;28;20174;-73
2021/06/27 00:52:24;;;;;;;4.30;3.90;;;17.80;99.90;;;;;;5071125;28;20788;-72
2021/06/27 00:54:49;;;;;;;4.40;4.00;;;17.80;99.90;;;;;;5071157;28;20668;-72
2021/06/27 00:57:15;;;;;;;3.90;3.60;;;17.70;99.90;;;;;;5071143;28;20403;-72
2021/06/27 00:59:40;;;;;;;4.00;3.70;;;17.70;99.90;;;;;;5071295;28;20580;-72
2021/06/27 01:02:06;;;;;;;4.77;4.37;;;17.70;99.90;;;;;;5071078;28;20198;-72
2021/06/27 01:04:31;;;;;;;8.50;4.70;;;17.60;99.90;;;;;;5071074;28;20161;-72
2021/06/27 01:06:57;;;;;;;3.97;3.67;;;17.60;99.90;;;;;;5070635;28;20646;-72
2021/06/27 01:09:23;;;;;;;6.00;4.37;;;17.60;99.90;;;;;;5071072;28;20632;-72
2021/06/27 01:11:48;;;;;;;4.87;4.30;;;17.60;99.90;;;;;;5070881;28;20197;-72
2021/06/27 01:14:14;;;;;;;6.63;3.87;;;17.60;99.90;;;;;;5071091;28;20248;-72
2021/06/27 01:16:41;;;;;;;4.87;4.27;;;17.60;99.90;;;;;;5070901;28;20172;-72
2021/06/27 01:19:07;;;;;;;4.90;4.40;;;17.60;99.90;;;;;;5074536;28;20216;-72
2021/06/27 01:21:35;;;;;;;6.23;5.23;;;17.70;99.90;;;;;;5074385;28;20431;-72
2021/06/27 01:24:02;;;;;;;3.80;3.50;;;17.60;99.90;;;;;;5074251;28;20429;-72
2021/06/27 01:26:28;;;;;;;6.10;5.17;;;17.60;99.90;;;;;;5074320;28;20453;-72
2021/06/27 01:28:53;;;;;;;6.83;6.20;;;17.60;99.90;;;;;;5074573;28;20404;-72
2021/06/27 01:31:19;;;;;;;4.73;3.60;;;17.50;99.90;;;;;;5074342;28;20186;-72
2021/06/27 01:33:48;;;;;;;5.07;4.37;;;17.50;99.90;;;;;;5074452;28;20163;-72
2021/06/27 01:36:14;;;;;;;5.10;4.70;;;17.50;99.90;;;;;;5074260;28;20202;-72
2021/06/27 01:38:40;;;;;;;6.67;4.57;;;17.50;99.90;;;;;;5074250;28;20402;-72
2021/06/27 01:41:06;;;;;;;5.37;4.87;;;17.40;99.90;;;;;;5074341;28;20624;-72
2021/06/27 01:43:32;;;;;;;5.53;4.50;;;17.40;99.90;;;;;;5074834;28;20181;-72
2021/06/27 01:46:02;;;;;;;4.33;3.93;;;17.30;99.90;;;;;;5074133;28;20560;-72
2021/06/27 01:48:29;;;;;;;4.70;4.30;;;17.30;99.90;;;;;;5074870;28;20180;-72
2021/06/27 01:50:57;;;;;;;5.07;4.57;;;17.30;99.90;;;;;;5074829;28;20903;-73
2021/06/27 01:53:26;;;;;;;5.20;4.20;;;17.30;99.90;;;;;;5073874;28;20941;-72
2021/06/27 01:56:05;;;;;;;8.53;4.27;;;17.20;99.90;;;;;;5073947;28;20924;-73
2021/06/27 01:58:51;;;;;;;6.50;4.63;;;17.30;99.90;;;;;;5073859;28;20410;-72
2021/06/27 02:01:23;;;;;;;4.33;3.93;;;17.20;99.90;;;;;;5072444;28;20514;-72
2021/06/27 02:03:49;;;;;;;7.90;4.77;;;17.20;99.90;;;;;;5073796;28;20775;-73
2021/06/27 02:06:19;;;;;;;4.93;4.43;;;17.10;99.90;;;;;;5073382;28;20458;-72
2021/06/27 02:08:45;;;;;;;4.70;4.00;;;17.10;99.90;;;;;;5073458;28;20929;-72
2021/06/27 02:11:12;;;;;;;4.50;4.10;;;17.00;99.90;;;;;;5073499;28;20509;-72
2021/06/27 02:13:38;;;;;;;4.53;4.13;;;17.00;99.90;;;;;;5073462;28;20168;-72
2021/06/27 02:16:05;;;;;;;5.80;4.80;;;17.00;99.90;;;;;;5073522;28;20471;-72
2021/06/27 02:18:33;;;;;;;4.30;3.90;;;17.00;99.90;;;;;;5073316;28;20258;-72
2021/06/27 02:21:05;;;;;;;4.90;4.27;;;16.90;99.90;;;;;;5073031;28;20470;-73
2021/06/27 02:23:31;;;;;;;7.07;4.30;;;16.90;99.90;;;;;;5073620;28;20960;-72
2021/06/27 02:25:58;;;;;;;4.20;3.47;;;16.90;99.90;;;;;;5073241;28;20453;-72
2021/06/27 02:28:25;;;;;;;4.80;4.40;;;16.80;99.90;;;;;;5072768;28;20308;-73
2021/06/27 02:30:51;;;;;;;4.43;4.03;;;16.80;99.90;;;;;;5073101;28;20409;-72
2021/06/27 02:33:18;;;;;;;4.47;4.00;;;16.80;99.90;;;;;;5055148;28;20414;-72
2021/06/27 02:35:44;;;;;;;4.93;3.63;;;16.70;99.90;;;;;;5073139;28;20411;-73
2021/06/27 02:38:10;;;;;;;4.40;4.00;;;16.70;99.90;;;;;;5072915;28;20413;-73
2021/06/27 02:40:36;;;;;;;5.23;4.47;;;16.70;99.90;;;;;;5073004;28;20413;-73
2021/06/27 02:43:02;;;;;;;4.47;4.07;;;16.70;99.90;;;;;;5072612;28;20974;-73
2021/06/27 02:45:28;;;;;;;4.37;3.97;;;16.60;99.90;;;;;;5072988;28;20452;-73
2021/06/27 02:47:53;;;;;;;4.37;3.97;;;16.60;99.90;;;;;;5072955;28;20207;-73
2021/06/27 02:50:19;;;;;;;4.00;3.60;;;16.50;99.90;;;;;;5055167;28;20171;-72
2021/06/27 02:52:45;;;;;;;4.57;4.17;;;16.50;99.90;;;;;;5072965;28;20191;-73
2021/06/27 02:55:12;;;;;;;5.40;4.40;;;16.50;99.90;;;;;;5072668;28;20635;-72
2021/06/27 02:57:39;;;;;;;5.10;4.60;;;16.40;99.90;;;;;;5072786;28;20243;-73
2021/06/27 03:00:06;;;;;;;4.70;4.10;;;16.40;99.90;;;;;;5072829;28;20495;-72
2021/06/27 03:02:32;;;;;;;4.10;3.70;;;16.40;99.90;;;;;;5072491;28;20472;-75
2021/06/27 03:04:57;;;;;;;5.80;4.50;;;16.50;99.90;;;;;;5067685;28;20913;-72
2021/06/27 03:07:23;;;;;;;6.23;4.57;;;16.70;99.90;;;;;;5072300;28;20314;-74
2021/06/27 03:09:48;;;;;;;6.50;5.17;;;16.70;99.90;;;;;;5072414;28;20168;-72
2021/06/27 03:12:14;;;;;;;6.20;5.60;;;16.60;99.90;;;;;;5072330;28;20191;-72
2021/06/27 03:14:39;;;;;;;4.77;4.33;;;16.60;99.90;;;;;;5072359;28;20179;-72
2021/06/27 03:17:05;;;;;;;7.20;4.30;;;16.60;99.90;;;;;;5072099;28;20185;-73
2021/06/27 03:19:30;;;;;;;5.03;4.50;;;16.50;99.90;;;;;;5072374;28;20176;-72
2021/06/27 03:21:56;;;;;;;5.13;4.63;;;16.50;99.90;;;;;;5072122;28;20739;-73
2021/06/27 03:24:21;;;;;;;7.70;5.20;;;16.50;99.90;;;;;;5072267;28;20222;-75
2021/06/27 03:26:47;;;;;;;6.17;5.60;;;16.50;99.90;;;;;;5072128;28;20290;-72
2021/06/27 03:29:12;;;;;;;5.00;4.60;;;16.60;99.90;;;;;;5072077;28;20206;-73
2021/06/27 03:31:38;;;;;;;5.77;5.27;;;16.60;99.90;;;;;;5071941;28;20226;-73
2021/06/27 03:34:04;;;;;;;13.23;5.70;;;16.60;99.90;;;;;;5072062;28;20171;-73
2021/06/27 03:36:29;;;;;;;6.27;5.67;;;16.50;99.90;;;;;;5071936;28;20178;-73
2021/06/27 03:39:04;;;;;;;6.03;5.37;;;16.50;99.90;;;;;;5071919;28;20260;-73
2021/06/27 03:41:33;;;;;;;5.50;5.00;;;16.40;99.90;;;;;;5071404;28;20243;-73
2021/06/27 03:43:59;;;;;;;5.40;4.90;;;16.40;99.90;;;;;;5071845;28;20416;-73
2021/06/27 03:46:24;;;;;;;6.00;5.47;;;16.40;99.90;;;;;;5071687;28;20500;-73
2021/06/27 03:48:50;;;;;;;6.43;5.13;;;16.40;99.90;;;;;;5071924;28;20250;-74
2021/06/27 03:51:15;;;;;;;6.17;5.67;;;16.50;99.90;;;;;;5071581;28;20191;-73
2021/06/27 03:53:41;;;;;;;5.70;5.17;;;16.50;99.90;;;;;;5071728;28;20686;-74
2021/06/27 03:56:06;;;;;;;5.53;5.03;;;16.60;99.90;;;;;;5071811;28;20172;-73
2021/06/27 03:58:32;;;;;;;6.33;4.93;;;16.50;99.90;;;;;;5071664;28;20558;-73
2021/06/27 04:00:57;;;;;;;4.77;4.37;;;16.60;99.90;;;;;;5071702;28;20178;-73
2021/06/27 04:03:23;;;;;;;5.63;5.13;;;16.60;99.90;;;;;;5072012;28;20286;-73
2021/06/27 04:05:48;;;;;;;6.10;5.30;;;16.70;99.90;;;;;;5067042;28;20227;-74
2021/06/27 04:08:14;;;;;;;5.20;4.70;;;16.80;99.90;;;;;;5071572;28;20249;-72
2021/06/27 04:10:39;;;;;;;5.27;4.87;;;16.70;99.90;;;;;;5071734;28;20165;-73
2021/06/27 04:13:04;;;;;;;5.97;5.20;;;16.80;99.90;;;;;;5071817;28;20674;-73
2021/06/27 04:15:30;;;;;;;9.50;5.30;;;16.90;99.90;;;;;;5071651;28;20179;-73
2021/06/27 04:17:55;;;;;;;6.87;5.57;;;17.10;99.90;;;;;;5071622;28;20535;-74
2021/06/27 04:20:21;;;;;;;5.83;5.37;;;18.00;99.90;;;;;;5071863;28;20173;-73
2021/06/27 04:22:46;;;;;;;5.07;4.67;;;19.00;99.90;;;;;;5071607;28;20210;-73
2021/06/27 04:25:12;;;;;;;5.13;4.70;;;19.60;99.90;;;;;;5071734;28;20177;-73
2021/06/27 04:27:38;;;;;;;6.73;4.90;;;20.50;99.90;;;;;;5071595;28;20243;-74
2021/06/27 04:30:08;;;;;;;6.37;5.63;;;20.50;99.90;;;;;;5071684;28;20168;-74
2021/06/27 04:32:34;;;;;;;3.97;3.67;;;20.80;99.90;;;;;;5071180;28;20193;-73
2021/06/27 04:35:00;;;;;;;5.43;4.50;;;21.00;99.90;;;;;;5071573;28;20484;-73
2021/06/27 04:37:26;;;;;;;5.50;4.80;;;21.50;99.90;;;;;;5071236;28;20404;-74
2021/06/27 04:39:51;;;;;;;4.93;4.53;;;21.70;99.90;;;;;;5071489;28;20197;-73
2021/06/27 04:42:17;;;;;;;5.90;4.33;;;21.10;99.90;;;;;;5071378;28;20320;-74
2021/06/27 04:44:43;;;;;;;5.57;5.07;;;20.90;99.90;;;;;;5071664;28;20286;-74
2021/06/27 04:47:09;;;;;;;5.43;4.93;;;21.70;99.90;;;;;;5071332;28;20199;-74
2021/06/27 04:49:38;;;;;;;4.03;3.73;;;21.60;99.90;;;;;;5071409;28;20399;-72
2021/06/27 04:52:06;;;;;;;4.93;4.53;;;21.90;99.90;;;;;;5073265;28;20179;-73
2021/06/27 04:54:32;;;;;;;4.77;4.17;;;21.50;99.90;;;;;;5075245;28;20926;-73
2021/06/27 04:56:57;;;;;;;4.73;4.40;;;21.20;99.90;;;;;;5074773;28;20432;-73
2021/06/27 04:59:22;;;;;;;4.30;4.00;;;21.60;99.90;;;;;;5075153;28;20200;-73
2021/06/27 05:01:48;;;;;;;4.50;4.10;;;21.50;99.90;;;;;;5074628;28;20197;-73
2021/06/27 05:04:13;;;;;;;4.40;4.07;;;21.60;99.90;;;;;;5072026;28;20168;-72
2021/06/27 05:06:39;;;;;;;4.03;3.63;;;22.40;99.90;;;;;;5072563;28;20278;-73
2021/06/27 05:09:04;;;;;;;4.50;4.20;;;23.00;99.90;;;;;;5074886;28;20833;-73
2021/06/27 05:11:30;;;;;;;4.30;3.90;;;22.90;99.90;;;;;;5056587;28;20196;-73
2021/06/27 05:13:55;;;;;;;3.20;2.90;;;22.70;99.90;;;;;;5074774;28;20212;-73
2021/06/27 05:16:21;;;;;;;3.77;3.47;;;23.10;99.90;;;;;;5074488;28;20174;-73
2021/06/27 05:18:46;;;;;;;3.87;3.27;;;23.60;99.90;;;;;;5074555;28;20178;-74
2021/06/27 05:21:12;;;;;;;4.20;3.80;;;23.50;99.90;;;;;;5074325;28;20225;-73
2021/06/27 05:23:37;;;;;;;3.37;3.17;;;23.70;99.30;;;;;;5074323;28;20197;-72
2021/06/27 05:26:03;;;;;;;4.50;4.10;;;23.40;99.90;;;;;;5074565;28;20217;-73
2021/06/27 05:28:30;;;;;;;3.73;3.27;;;23.90;99.00;;;;;;5074422;28;20167;-73
2021/06/27 05:30:56;;;;;;;5.70;3.80;;;23.80;99.30;;;;;;5074368;28;20158;-73
2021/06/27 05:33:21;;;;;;;4.20;3.80;;;23.50;99.30;;;;;;5074267;28;20412;-73
2021/06/27 05:35:46;;;;;;;6.50;3.83;;;23.20;99.80;;;;;;5074008;28;20217;-73
2021/06/27 05:38:12;;;;;;;3.70;3.40;;;23.50;99.70;;;;;;5074189;28;20228;-73
2021/06/27 05:40:39;;;;;;;4.27;3.90;;;23.80;99.40;;;;;;5056493;28;20170;-73
2021/06/27 05:43:04;;;;;;;3.63;3.33;;;23.90;98.60;;;;;;5055935;28;20206;-74
2021/06/27 05:45:30;;;;;;;4.20;3.43;;;24.80;97.00;;;;;;5074088;28;20806;-74
2021/06/27 05:47:56;;;;;;;3.33;3.03;;;24.60;96.60;;;;;;5074034;28;20265;-73
2021/06/27 05:50:21;;;;;;;3.90;3.60;;;25.10;95.70;;;;;;5074039;28;20208;-73
2021/06/27 05:52:47;;;;;;;3.30;3.00;;;25.30;94.90;;;;;;5073850;28;20257;-73
2021/06/27 05:55:13;;;;;;;3.90;3.37;;;25.70;94.80;;;;;;5074141;28;20681;-73
2021/06/27 05:57:38;;;;;;;3.20;2.90;;;25.40;94.50;;;;;;5073837;28;20162;-73
2021/06/27 06:00:05;;;;;;;3.57;3.27;;;25.40;94.00;;;;;;5074198;28;20417;-73
2021/06/27 06:02:31;;;;;;;4.03;3.63;;;26.00;93.10;;;;;;5073459;28;20200;-73
2021/06/27 06:04:56;;;;;;;3.43;3.10;;;26.30;92.50;;;;;;5073686;28;20495;-73
2021/06/27 06:07:21;;;;;;;3.70;3.00;;;25.70;92.80;;;;;;5073848;28;20205;-73
2021/06/27 06:09:47;;;;;;;2.60;2.40;;;25.60;93.90;;;;;;5073611;28;20209;-73
2021/06/27 06:12:12;;;;;;;3.93;3.63;;;26.40;92.00;;;;;;5073400;28;20194;-73
2021/06/27 06:14:38;;;;;;;3.30;3.00;;;25.90;92.80;;;;;;5064621;28;20190;-73
2021/06/27 06:17:04;;;;;;;2.97;2.73;;;26.70;91.10;;;;;;5068763;28;20174;-73
2021/06/27 06:19:29;;;;;;;3.40;3.20;;;27.10;90.50;;;;;;5071159;28;20555;-73
2021/06/27 06:21:55;;;;;;;3.60;2.60;;;26.30;91.10;;;;;;5053227;28;20244;-73
2021/06/27 06:24:20;;;;;;;2.93;2.70;;;26.30;91.20;;;;;;5053417;28;20174;-73
2021/06/27 06:26:47;;;;;;;2.93;2.73;;;27.00;89.20;;;;;;5053051;28;20202;-73
2021/06/27 06:29:12;;;;;;;2.90;2.70;;;26.70;90.10;;;;;;5053323;28;20167;-73
2021/06/27 06:31:38;;;;;;;2.80;2.60;;;26.50;90.40;;;;;;5054518;28;20422;-73
2021/06/27 06:34:03;;;;;;;3.20;3.00;;;27.50;88.40;;;;;;5072963;28;20224;-73
2021/06/27 06:36:29;;;;;;;2.90;2.70;;;26.90;90.20;;;;;;5073194;28;20167;-73
2021/06/27 06:38:55;;;;;;;3.30;2.40;;;27.80;87.00;;;;;;5073000;28;20663;-74
2021/06/27 06:41:20;;;;;;;2.73;2.50;;;27.90;84.60;;;;;;5072994;28;20186;-73
2021/06/27 06:43:46;;;;;;;3.30;2.60;;;26.90;86.90;;;;;;5073203;28;20166;-73
2021/06/27 06:46:12;;;;;;;2.40;2.20;;;26.30;87.60;;;;;;5072972;28;20194;-73
2021/06/27 06:48:38;;;;;;;3.30;3.00;;;28.00;84.50;;;;;;5069913;28;20773;-73
2021/06/27 06:51:04;;;;;;;3.37;2.43;;;27.90;82.90;;;;;;5085765;28;20177;-73
2021/06/27 06:53:29;;;;;;;3.00;2.80;;;28.90;80.40;;;;;;5086574;28;20400;-73
2021/06/27 06:55:57;;;;;;;3.30;3.10;;;27.40;82.60;;;;;;5069193;28;20249;-74
2021/06/27 06:58:28;;;;;;;2.70;2.50;;;27.60;82.60;;;;;;5091760;28;20173;-73
2021/06/27 07:00:54;;;;;;;2.43;2.07;;;28.40;81.30;;;;;;5092361;28;20772;-73
2021/06/27 07:03:19;;;;;;;2.50;2.30;;;28.00;80.80;;;;;;5092354;28;20396;-73
2021/06/27 07:05:44;;;;;;;3.00;2.50;;;28.40;79.40;;;;;;5085786;28;20604;-73
2021/06/27 07:08:10;;;;;;;2.70;2.20;;;29.20;78.50;;;;;;5090342;28;20166;-73
2021/06/27 07:10:35;;;;;;;3.17;2.50;;;30.00;74.70;;;;;;5071955;28;20675;-73
2021/06/27 07:13:01;;;;;;;3.30;2.93;;;28.20;78.60;;;;;;5071775;28;20244;-73
2021/06/27 07:15:26;;;;;;;3.63;3.33;;;27.10;80.20;;;;;;5070747;28;20639;-73
2021/06/27 07:17:52;;;;;;;2.47;2.27;;;26.70;82.30;;;;;;5071826;28;20174;-73
2021/06/27 07:20:18;;;;;;;2.57;2.37;;;27.40;81.90;;;;;;5071802;28;20177;-74
2021/06/27 07:22:43;;;;;;;2.90;2.67;;;27.70;80.60;;;;;;5071480;28;20212;-74
2021/06/27 07:25:09;;;;;;;3.33;2.93;;;28.40;81.20;;;;;;5071706;28;20174;-73
2021/06/27 07:27:36;;;;;;;2.43;2.23;;;27.90;78.10;;;;;;5071263;28;20170;-73
2021/06/27 07:30:05;;;;;;;2.83;2.63;;;28.20;81.30;;;;;;5071440;28;20397;-73
2021/06/27 07:32:31;;;;;;;2.30;2.13;;;29.10;80.10;;;;;;5071478;28;20408;-74
2021/06/27 07:34:56;;;;;;;2.10;1.90;;;30.00;74.90;;;;;;5071460;28;20416;-72
2021/06/27 07:37:22;;;;;;;2.30;2.10;;;28.70;79.00;;;;;;5071712;28;20550;-72
2021/06/27 07:39:47;;;;;;;2.60;2.40;;;30.00;73.00;;;;;;5071486;28;20265;-73
2021/06/27 07:42:13;;;;;;;3.10;2.90;;;30.00;73.60;;;;;;5071496;28;20607;-73
2021/06/27 07:44:38;;;;;;;3.47;2.90;;;28.70;75.50;;;;;;5071478;28;20169;-74
2021/06/27 07:47:04;;;;;;;3.13;2.40;;;28.10;77.40;;;;;;5053414;28;20280;-73
2021/06/27 07:49:29;;;;;;;2.30;2.10;;;28.50;76.30;;;;;;5071289;28;20178;-73
2021/06/27 07:51:55;;;;;;;2.30;2.10;;;29.40;78.30;;;;;;5071423;28;20213;-73
2021/06/27 07:54:21;;;;;;;4.03;2.80;;;30.60;72.80;;;;;;5071344;28;20163;-74
2021/06/27 07:56:46;;;;;;;2.67;2.47;;;29.90;72.60;;;;;;5071144;28;20193;-72
2021/06/27 07:59:14;;;;;;;3.23;2.97;;;30.00;75.20;;;;;;5070816;28;20248;-72
2021/06/27 08:01:39;;;;;;;2.50;2.30;;;29.30;73.90;;;;;;5071073;28;20201;-73
2021/06/27 08:04:05;;;;;;;3.60;2.60;;;29.10;73.10;;;;;;5049821;28;20946;-71
2021/06/27 08:06:30;;;;;;;3.30;3.00;;;29.70;71.20;;;;;;5049921;28;20671;-74
2021/06/27 08:08:56;;;;;;;2.60;2.40;;;28.10;74.20;;;;;;5060565;28;20180;-72
2021/06/27 08:11:22;;;;;;;3.43;2.73;;;28.30;76.50;;;;;;5070972;28;20190;-72
2021/06/27 08:13:47;;;;;;;4.23;3.03;;;29.20;74.10;;;;;;5071106;28;20541;-72
2021/06/27 08:16:13;;;;;;;2.70;2.50;;;30.00;73.00;;;;;;5071067;28;20511;-72
2021/06/27 08:18:38;;;;;;;2.53;2.33;;;30.60;69.50;;;;;;5072974;28;20249;-72
2021/06/27 08:21:04;;;;;;;3.13;2.83;;;30.10;69.80;;;;;;5074468;28;20176;-72
2021/06/27 08:23:30;;;;;;;6.77;6.07;;;28.90;71.80;;;;;;5074165;28;20190;-72
2021/06/27 08:25:55;;;;;;;5.10;3.13;;;29.90;72.10;;;;;;5074885;28;20251;-72
2021/06/27 08:28:21;;;;;;;2.50;2.30;;;29.50;74.40;;;;;;5078416;28;20178;-72
2021/06/27 08:30:47;;;;;;;3.57;2.60;;;28.70;73.40;;;;;;5078935;28;20533;-72
2021/06/27 08:33:13;;;;;;;3.03;2.83;;;30.40;70.90;;;;;;5078907;28;20240;-72
2021/06/27 08:35:38;;;;;;;4.20;2.93;;;30.30;69.80;;;;;;5078360;28;20416;-72
2021/06/27 08:38:04;;;;;;;4.23;3.87;;;31.20;70.00;;;;;;5078369;28;20546;-72
2021/06/27 08:40:30;;;;;;;2.70;2.50;;;30.50;69.60;;;;;;5069068;28;20208;-72
2021/06/27 08:42:56;;;;;;;2.57;2.37;;;31.10;67.60;;;;;;5058194;28;20261;-72
2021/06/27 08:45:23;;;;;;;2.93;2.70;;;29.30;69.10;;;;;;5057838;28;20632;-72
2021/06/27 08:47:52;;;;;;;2.60;2.13;;;29.70;68.60;;;;;;5057589;28;20472;-72
2021/06/27 08:50:20;;;;;;;6.00;4.57;;;29.10;70.40;;;;;;5069769;28;20788;-72
2021/06/27 08:52:46;;;;;;;2.60;2.40;;;30.50;69.50;;;;;;5060090;28;20431;-72
2021/06/27 08:55:14;;;;;;;3.07;2.27;;;30.50;69.00;;;;;;5078601;28;20405;-72
2021/06/27 08:57:40;;;;;;;1.93;1.83;;;29.80;68.90;;;;;;5069538;28;20825;-72
2021/06/27 09:00:08;;;;;;;5.17;2.43;;;30.10;68.00;;;;;;5056979;28;20401;-72
2021/06/27 09:02:34;;;;;;;4.33;2.60;;;29.90;68.80;;;;;;5073117;28;20553;-72
2021/06/27 09:04:59;;;;;;;3.10;2.87;;;30.00;69.80;;;;;;5059464;28;20439;-72
2021/06/27 09:07:31;;;;;;;2.13;2.03;;;29.20;69.80;;;;;;5072756;28;20230;-72
2021/06/27 09:10:06;;;;;;;4.23;2.27;;;29.20;71.20;;;;;;5068185;28;20184;-72
2021/06/27 09:12:51;;;;;;;2.40;2.20;;;28.90;72.20;;;;;;5047426;28;20956;-73
2021/06/27 09:15:56;;;;;;;2.70;2.43;;;30.50;68.10;;;;;;5057773;28;20441;-73
2021/06/27 09:18:25;;;;;;;1.93;1.83;;;29.70;68.50;;;;;;4995687;28;20416;-73
2021/06/27 09:20:53;;;;;;;5.03;4.63;;;29.70;69.20;;;;;;5058790;28;20431;-72
2021/06/27 09:23:41;;;;;;;2.00;1.90;;;29.90;70.50;;;;;;5077209;28;20458;-72
2021/06/27 09:26:08;;;;;;;2.47;2.30;;;29.40;69.40;;;;;;5077496;28;20451;-73
2021/06/27 09:28:42;;;;;;;6.40;5.80;;;30.20;69.20;;;;;;5078025;28;20511;-73
2021/06/27 09:31:07;;;;;;;4.63;2.83;;;31.10;67.30;;;;;;5074646;28;20979;-72
2021/06/27 09:33:33;;;;;;;3.00;2.80;;;30.00;66.90;;;;;;5067245;28;20400;-72
2021/06/27 09:36:09;;;;;;;3.57;2.00;;;30.20;68.40;;;;;;5077394;28;20231;-72
2021/06/27 09:38:48;;;;;;;3.00;2.70;;;30.90;65.70;;;;;;5075221;28;20185;-73
2021/06/27 09:41:22;;;;;;;2.53;2.33;;;31.30;65.80;;;;;;5074563;28;20432;-72
2021/06/27 09:44:05;;;;;;;2.10;2.00;;;31.40;63.70;;;;;;5057298;28;20405;-72
2021/06/27 09:46:42;;;;;;;2.40;2.20;;;32.10;64.50;;;;;;5057074;28;20450;-72
2021/06/27 09:49:12;;;;;;;4.50;2.33;;;31.10;65.50;;;;;;5061724;28;20757;-72
2021/06/27 09:51:43;;;;;;;2.63;2.33;;;30.70;65.80;;;;;;5077646;28;20503;-72
2021/06/27 09:54:16;;;;;;;2.50;2.20;;;29.20;67.40;;;;;;5077075;28;20409;-72
2021/06/27 09:56:43;;;;;;;2.90;2.60;;;30.40;64.90;;;;;;5063434;28;20432;-73
2021/06/27 09:59:12;;;;;;;2.87;2.67;;;30.00;66.10;;;;;;5076864;28;20431;-73
2021/06/27 10:01:40;;;;;;;2.73;2.53;;;30.60;65.50;;;;;;5075879;28;20444;-73
2021/06/27 10:04:07;;;;;;;2.97;2.23;;;31.10;65.10;;;;;;5077235;28;20415;-72
2021/06/27 10:06:35;;;;;;;3.70;2.33;;;30.50;66.10;;;;;;5076280;28;21013;-73
2021/06/27 10:09:16;;;;;;;5.90;5.50;;;29.70;66.30;;;;;;5077353;28;20404;-72
2021/06/27 10:12:09;;;;;;;5.30;4.90;;;31.20;64.30;;;;;;5077247;28;20429;-72
2021/06/27 10:14:58;;;;;;;2.87;2.20;;;29.30;67.20;;;;;;5076800;28;20400;-72
2021/06/27 10:17:25;;;;;;;3.03;2.73;;;28.70;69.30;;;;;;5077026;28;20416;-72
2021/06/27 10:19:53;;;;;;;3.60;3.40;;;29.20;67.30;;;;;;5077320;28;20400;-73
2021/06/27 10:22:20;;;;;;;2.90;2.60;;;29.30;67.80;;;;;;5076536;28;20444;-72
2021/06/27 10:24:45;;;;;;;2.80;2.50;;;29.30;66.50;;;;;;5076623;28;20443;-73
2021/06/27 10:27:13;;;;;;;4.60;2.17;;;28.70;68.10;;;;;;5077004;28;20460;-72
2021/06/27 10:29:42;;;;;;;2.30;2.10;;;28.80;68.10;;;;;;5076345;28;20166;-72
2021/06/27 10:32:09;;;;;;;3.30;2.53;;;28.30;67.60;;;;;;5072788;28;20478;-73
2021/06/27 10:34:35;;;;;;;3.30;2.30;;;28.10;68.00;;;;;;5072970;28;20439;-72
2021/06/27 10:37:25;;;;;;;3.13;2.40;;;27.90;67.30;;;;;;5072660;28;20400;-74
2021/06/27 10:40:17;;;;;;;2.20;2.10;;;27.50;67.60;;;;;;5073079;28;20412;-74
2021/06/27 10:42:57;;;;;;;2.67;2.47;;;27.40;67.80;;;;;;5072842;28;20438;-73
2021/06/27 10:45:39;;;;;;;2.83;2.63;;;27.20;70.50;;;;;;5072742;28;20417;-73
2021/06/27 10:48:33;;;;;;;2.10;2.00;;;27.40;68.50;;;;;;5072903;28;20446;-75
2021/06/27 10:51:01;;;;;;;2.93;2.73;;;27.30;70.50;;;;;;5072564;28;20928;-74
2021/06/27 10:53:27;;;;;;;2.73;2.30;;;27.30;71.70;;;;;;5073683;28;20412;-77
2021/06/27 10:55:58;;;;;;;492.53;285.47;;;27.00;72.30;;;;;;5072357;28;20449;-74
2021/06/27 10:58:39;;;;;;;4.37;4.00;;;27.20;73.70;;;;;;5072535;28;20164;-74
2021/06/27 11:01:08;;;;;;;2.60;2.00;;;26.60;73.20;;;;;;5072264;28;20939;-73
2021/06/27 11:03:42;;;;;;;5.27;4.03;;;27.00;72.80;;;;;;5072417;28;20513;-76
2021/06/27 11:06:17;;;;;;;3.27;2.97;;;27.30;72.70;;;;;;5072270;28;20493;-75
2021/06/27 11:08:55;;;;;;;2.67;2.50;;;27.00;72.30;;;;;;5072188;28;20459;-76
2021/06/27 11:11:23;;;;;;;3.40;3.10;;;27.00;75.20;;;;;;5072022;28;20424;-74
2021/06/27 11:14:16;;;;;;;3.00;2.67;;;27.30;73.80;;;;;;5071991;28;20783;-75
2021/06/27 11:17:06;;;;;;;3.43;3.13;;;26.90;74.00;;;;;;5072020;28;20906;-69
2021/06/27 11:19:33;;;;;;;2.77;2.57;;;26.60;75.70;;;;;;5072065;28;20896;-73
2021/06/27 11:22:20;;;;;;;3.30;2.60;;;26.50;76.70;;;;;;5070611;28;20431;-75
2021/06/27 11:24:47;;;;;;;2.70;2.50;;;26.50;75.30;;;;;;5052107;28;20398;-75
2021/06/27 11:27:32;;;;;;;3.40;3.20;;;26.70;74.20;;;;;;5066194;28;20455;-74
2021/06/27 11:29:59;;;;;;;3.60;3.30;;;27.10;75.50;;;;;;5051668;28;20496;-75
2021/06/27 11:32:24;;;;;;;4.23;2.90;;;27.00;76.10;;;;;;5061179;28;20853;-75
2021/06/27 11:34:59;;;;;;;4.20;3.00;;;26.50;76.00;;;;;;5070502;28;20522;-76
2021/06/27 11:37:25;;;;;;;3.20;2.90;;;26.20;77.80;;;;;;5071688;28;20177;-75
2021/06/27 11:39:56;;;;;;;2.60;2.40;;;26.30;77.60;;;;;;5071711;28;20407;-75
2021/06/27 11:42:28;;;;;;;2.60;2.40;;;26.60;77.50;;;;;;5071227;28;21016;-75
2021/06/27 11:45:09;;;;;;;3.63;3.10;;;26.20;77.70;;;;;;5053675;28;20416;-76
2021/06/27 11:47:43;;;;;;;2.87;2.67;;;26.30;76.60;;;;;;5071135;28;21001;-74
2021/06/27 11:50:20;;;;;;;3.30;3.07;;;26.30;76.20;;;;;;5071852;28;20848;-76
2021/06/27 11:52:52;;;;;;;3.80;3.50;;;26.70;78.40;;;;;;5071054;28;20426;-75
2021/06/27 11:55:23;;;;;;;2.77;2.57;;;26.80;77.30;;;;;;5069332;28;20511;-75
2021/06/27 11:57:49;;;;;;;3.83;3.10;;;27.00;75.80;;;;;;5066811;28;20424;-74
2021/06/27 12:00:14;;;;;;;2.87;2.67;;;27.00;74.50;;;;;;5071201;28;21002;-76
2021/06/27 12:02:40;;;;;;;4.50;3.10;;;26.80;75.70;;;;;;5070614;28;20186;-75
2021/06/27 12:05:11;;;;;;;2.80;2.60;;;26.90;76.40;;;;;;5071542;28;20181;-75
2021/06/27 12:07:44;;;;;;;2.97;2.77;;;27.10;75.20;;;;;;5071419;28;20186;-75
2021/06/27 12:10:15;;;;;;;2.80;2.60;;;26.70;75.20;;;;;;5071798;28;20417;-74
2021/06/27 12:12:52;;;;;;;2.60;2.40;;;26.50;75.70;;;;;;5071233;28;20924;-74
2021/06/27 12:15:17;;;;;;;4.20;3.07;;;26.50;75.40;;;;;;5071172;28;20464;-74
2021/06/27 12:17:48;;;;;;;3.07;2.77;;;26.80;74.50;;;;;;5071199;28;20402;-74
2021/06/27 12:20:16;;;;;;;3.20;2.90;;;26.60;74.30;;;;;;5071560;28;20182;-75
2021/06/27 12:23:02;;;;;;;2.77;2.57;;;26.80;74.40;;;;;;5070737;28;20499;-75
2021/06/27 12:25:33;;;;;;;1.90;1.80;;;26.70;73.90;;;;;;5068591;28;20977;-75
2021/06/27 12:28:03;;;;;;;2.80;2.60;;;26.90;74.20;;;;;;5070940;28;20421;-74
2021/06/27 12:30:41;;;;;;;3.00;2.40;;;26.90;73.20;;;;;;5070587;28;20405;-75
2021/06/27 12:33:09;;;;;;;3.33;3.13;;;26.90;73.60;;;;;;5064566;28;20483;-74
2021/06/27 12:35:39;;;;;;;2.93;2.67;;;27.00;73.10;;;;;;5071155;28;20900;-74
2021/06/27 12:38:05;;;;;;;2.60;2.40;;;27.10;72.90;;;;;;5071050;28;20440;-75
2021/06/27 12:40:31;;;;;;;2.50;2.30;;;27.00;73.40;;;;;;5070918;28;20463;-75
2021/06/27 12:42:57;;;;;;;2.90;2.70;;;26.90;73.80;;;;;;5070580;28;20435;-74
2021/06/27 12:45:24;;;;;;;3.23;2.93;;;27.00;74.80;;;;;;5071134;28;20411;-75
2021/06/27 12:47:50;;;;;;;5.57;2.57;;;27.00;74.90;;;;;;5070899;28;20468;-75
2021/06/27 12:50:17;;;;;;;3.37;2.73;;;27.20;74.60;;;;;;5071326;28;20522;-75